Time;durP1;ratioP1;P1;durP2;ratioP2;P2;SDS_P1;SDS_P2;PMS_P1;PMS_P2;Temp;Humidity;BMP_temperature;BMP_pressure;BME280_temperature;BME280_humidity;BME280_pressure;Samples;Min_cycle;Max_cycle;Signal;HPM_P1;HPM_P2
2021/07/01 00:02:07;;;;;;;1.77;1.57;;;;;;;;;;5120473;28;20221;-68
2021/07/01 00:04:34;;;;;;;2.50;2.20;;;;;;;;;;5120244;28;20205;-68
2021/07/01 00:07:02;;;;;;;3.27;2.37;;;;;;;;;;5120735;28;20200;-68
2021/07/01 00:09:30;;;;;;;2.03;1.70;;;;;;;;;;5120770;28;20209;-68
2021/07/01 00:12:00;;;;;;;3.27;2.30;;;;;;;;;;5118715;28;20330;-68
2021/07/01 00:14:27;;;;;;;2.60;2.13;;;;;;;;;;5121305;28;20238;-69
2021/07/01 00:16:55;;;;;;;2.43;2.23;;;;;;;;;;5121316;28;20278;-68
2021/07/01 00:19:24;;;;;;;4.83;2.20;;;;;;;;;;5120833;28;20201;-68
2021/07/01 00:21:52;;;;;;;2.70;2.20;;;;;;;;;;5120665;28;20221;-68
2021/07/01 00:24:20;;;;;;;3.23;2.10;;;;;;;;;;5121005;28;20258;-68
2021/07/01 00:26:48;;;;;;;3.80;2.13;;;;;;;;;;5119943;28;20240;-68
2021/07/01 00:29:15;;;;;;;2.90;2.13;;;;;;;;;;5120354;28;20664;-68
2021/07/01 00:31:43;;;;;;;2.20;1.97;;;;;;;;;;5120086;28;20228;-68
2021/07/01 00:34:11;;;;;;;1.90;1.70;;;;;;;;;;5119962;28;20204;-68
2021/07/01 00:36:40;;;;;;;2.00;1.80;;;;;;;;;;5119857;28;20205;-68
2021/07/01 00:39:07;;;;;;;2.67;2.13;;;;;;;;;;5120168;28;20235;-68
2021/07/01 00:41:35;;;;;;;2.43;2.00;;;;;;;;;;5119854;28;20270;-69
2021/07/01 00:44:03;;;;;;;3.93;2.93;;;;;;;;;;5120039;28;20212;-69
2021/07/01 00:46:31;;;;;;;2.60;2.40;;;;;;;;;;5119960;28;20201;-69
2021/07/01 00:48:59;;;;;;;4.47;2.47;;;;;;;;;;5119543;28;20563;-68
2021/07/01 00:51:27;;;;;;;4.20;2.37;;;;;;;;;;5119591;28;20264;-68
2021/07/01 00:53:56;;;;;;;3.40;2.50;;;;;;;;;;5119779;28;20652;-68
2021/07/01 00:56:24;;;;;;;4.53;3.03;;;;;;;;;;5119733;28;20258;-68
2021/07/01 00:58:54;;;;;;;2.53;1.90;;;;;;;;;;5119152;28;20560;-68
2021/07/01 01:01:22;;;;;;;4.37;1.90;;;;;;;;;;5119991;28;20224;-68
2021/07/01 01:03:49;;;;;;;7.30;2.77;;;;;;;;;;5119368;28;20258;-68
2021/07/01 01:06:17;;;;;;;5.27;2.27;;;;;;;;;;5119362;28;20205;-68
2021/07/01 01:08:45;;;;;;;3.07;2.37;;;;;;;;;;5119514;28;20204;-68
2021/07/01 01:11:14;;;;;;;6.73;2.37;;;;;;;;;;5119315;28;20231;-68
2021/07/01 01:13:43;;;;;;;3.40;2.60;;;;;;;;;;5116910;28;20204;-68
2021/07/01 01:16:10;;;;;;;4.07;2.80;;;;;;;;;;5119432;28;20204;-68
2021/07/01 01:18:38;;;;;;;5.60;2.43;;;;;;;;;;5119094;28;20742;-68
2021/07/01 01:21:10;;;;;;;3.77;2.80;;;;;;;;;;5119501;28;20205;-68
2021/07/01 01:23:39;;;;;;;4.90;2.93;;;;;;;;;;5119162;28;20201;-68
2021/07/01 01:26:07;;;;;;;5.80;2.87;;;;;;;;;;5119276;28;20253;-68
2021/07/01 01:28:36;;;;;;;2.87;2.50;;;;;;;;;;5119037;28;20725;-68
2021/07/01 01:31:04;;;;;;;5.60;2.27;;;;;;;;;;5119024;28;20208;-68
2021/07/01 01:33:32;;;;;;;2.77;2.40;;;;;;;;;;5118494;28;20209;-68
2021/07/01 01:36:00;;;;;;;3.57;2.63;;;;;;;;;;5118796;28;20205;-68
2021/07/01 01:38:28;;;;;;;3.27;2.30;;;;;;;;;;5105309;28;20262;-68
2021/07/01 01:40:57;;;;;;;4.77;2.47;;;;;;;;;;5118798;28;20230;-68
2021/07/01 01:43:24;;;;;;;5.37;2.67;;;;;;;;;;5119136;28;20230;-69
2021/07/01 01:45:52;;;;;;;4.03;2.80;;;;;;;;;;5119991;28;20213;-69
2021/07/01 01:48:21;;;;;;;7.63;2.83;;;;;;;;;;5118969;28;20219;-69
2021/07/01 01:50:49;;;;;;;5.00;2.30;;;;;;;;;;5119319;28;20235;-68
2021/07/01 01:53:16;;;;;;;3.97;2.40;;;;;;;;;;5118737;28;20228;-68
2021/07/01 01:55:44;;;;;;;3.23;2.40;;;;;;;;;;5118827;28;20208;-68
2021/07/01 01:58:13;;;;;;;2.57;2.37;;;;;;;;;;5118899;28;20208;-69
2021/07/01 02:00:41;;;;;;;3.13;2.40;;;;;;;;;;5118543;28;20209;-68
2021/07/01 02:03:09;;;;;;;4.20;2.30;;;;;;;;;;5118047;28;20220;-68
2021/07/01 02:05:37;;;;;;;5.23;2.30;;;;;;;;;;5118608;28;20204;-69
2021/07/01 02:08:07;;;;;;;4.93;2.77;;;;;;;;;;5118309;28;20266;-68
2021/07/01 02:10:35;;;;;;;4.70;2.10;;;;;;;;;;5118533;28;20655;-69
2021/07/01 02:13:04;;;;;;;3.07;2.30;;;;;;;;;;5117514;28;20282;-69
2021/07/01 02:15:33;;;;;;;6.77;2.40;;;;;;;;;;5118168;28;20309;-68
2021/07/01 02:18:01;;;;;;;2.53;2.30;;;;;;;;;;5117958;28;20208;-68
2021/07/01 02:20:29;;;;;;;3.50;2.40;;;;;;;;;;5118441;28;20230;-68
2021/07/01 02:22:56;;;;;;;3.20;2.23;;;;;;;;;;5118146;28;20224;-68
2021/07/01 02:25:24;;;;;;;2.73;2.40;;;;;;;;;;5118021;28;20204;-68
2021/07/01 02:27:52;;;;;;;2.97;2.30;;;;;;;;;;5118729;28;20565;-68
2021/07/01 02:30:19;;;;;;;3.87;2.53;;;;;;;;;;5118862;28;20231;-68
2021/07/01 02:32:48;;;;;;;3.13;2.50;;;;;;;;;;5117688;28;20228;-68
2021/07/01 02:35:31;;;;;;;3.87;1.90;;;;;;;;;;5107054;28;20208;-68
2021/07/01 02:37:59;;;;;;;2.47;2.27;;;;;;;;;;5117825;28;20281;-68
2021/07/01 02:40:26;;;;;;;2.60;2.20;;;;;;;;;;5117992;28;20245;-69
2021/07/01 02:42:54;;;;;;;3.77;2.40;;;;;;;;;;5117996;28;20246;-68
2021/07/01 02:45:22;;;;;;;4.57;2.57;;;;;;;;;;5118214;28;20212;-68
2021/07/01 02:47:51;;;;;;;3.07;2.20;;;;;;;;;;5117844;28;20244;-68
2021/07/01 02:50:19;;;;;;;2.93;2.70;;;;;;;;;;5118160;28;20208;-68
2021/07/01 02:52:47;;;;;;;6.57;2.87;;;;;;;;;;5117966;28;20229;-68
2021/07/01 02:55:14;;;;;;;4.03;2.83;;;;;;;;;;5117897;28;20209;-68
2021/07/01 02:57:42;;;;;;;2.80;2.60;;;;;;;;;;5117972;28;20672;-68
2021/07/01 03:00:11;;;;;;;4.10;2.63;;;;;;;;;;5118178;28;20569;-69
2021/07/01 03:02:39;;;;;;;3.77;2.80;;;;;;;;;;5117683;28;20217;-68
2021/07/01 03:05:08;;;;;;;2.87;2.30;;;;;;;;;;5118087;28;20262;-68
2021/07/01 03:07:36;;;;;;;4.33;2.33;;;;;;;;;;5117823;28;20208;-68
2021/07/01 03:10:05;;;;;;;2.43;2.00;;;;;;;;;;5118159;28;20609;-68
2021/07/01 03:12:33;;;;;;;3.70;2.53;;;;;;;;;;5117064;28;20649;-68
2021/07/01 03:15:00;;;;;;;2.57;2.00;;;;;;;;;;5118099;28;20205;-68
2021/07/01 03:17:28;;;;;;;3.40;2.30;;;;;;;;;;5118419;28;20204;-68
2021/07/01 03:19:56;;;;;;;2.40;2.20;;;;;;;;;;5118580;28;20656;-68
2021/07/01 03:22:25;;;;;;;2.83;2.00;;;;;;;;;;5121829;28;20220;-68
2021/07/01 03:24:53;;;;;;;4.67;2.30;;;;;;;;;;5121908;28;20262;-68
2021/07/01 03:27:20;;;;;;;5.53;2.30;;;;;;;;;;5121635;28;20201;-68
2021/07/01 03:29:48;;;;;;;3.83;2.23;;;;;;;;;;5121764;28;20209;-68
2021/07/01 03:32:16;;;;;;;4.37;2.20;;;;;;;;;;5121370;28;20221;-68
2021/07/01 03:34:43;;;;;;;4.97;2.43;;;;;;;;;;5121037;28;20223;-68
2021/07/01 03:37:11;;;;;;;2.67;2.40;;;;;;;;;;5121332;28;20237;-68
2021/07/01 03:39:40;;;;;;;2.10;1.93;;;;;;;;;;5121182;28;20204;-68
2021/07/01 03:42:09;;;;;;;3.53;2.27;;;;;;;;;;5121129;28;20221;-68
2021/07/01 03:44:37;;;;;;;3.13;2.10;;;;;;;;;;5120883;28;20216;-68
2021/07/01 03:47:06;;;;;;;2.33;1.63;;;;;;;;;;5121204;28;20201;-68
2021/07/01 03:49:34;;;;;;;5.90;2.33;;;;;;;;;;5120730;28;20667;-68
2021/07/01 03:52:01;;;;;;;2.80;2.00;;;;;;;;;;5121042;28;20225;-68
2021/07/01 03:54:29;;;;;;;2.57;2.37;;;;;;;;;;5120932;28;20250;-68
2021/07/01 03:56:59;;;;;;;2.27;2.07;;;;;;;;;;5121470;28;20204;-68
2021/07/01 03:59:27;;;;;;;2.83;2.00;;;;;;;;;;5121030;28;20212;-66
2021/07/01 04:01:55;;;;;;;4.20;2.37;;;;;;;;;;5120554;28;20232;-66
2021/07/01 04:04:22;;;;;;;2.20;2.00;;;;;;;;;;5106960;28;20284;-66
2021/07/01 04:06:50;;;;;;;2.47;2.27;;;;;;;;;;5120490;28;20205;-66
2021/07/01 04:09:18;;;;;;;2.57;2.30;;;;;;;;;;5120796;28;20562;-66
2021/07/01 04:11:46;;;;;;;2.47;1.93;;;;;;;;;;5119909;28;20703;-66
2021/07/01 04:14:17;;;;;;;3.77;2.10;;;;;;;;;;5120556;28;20250;-66
2021/07/01 04:16:46;;;;;;;3.40;2.13;;;;;;;;;;5120489;28;20205;-66
2021/07/01 04:19:14;;;;;;;2.53;2.20;;;;;;;;;;5120348;28;20216;-67
2021/07/01 04:21:42;;;;;;;5.23;2.10;;;;;;;;;;5120491;28;20287;-67
2021/07/01 04:24:09;;;;;;;3.60;2.47;;;;;;;;;;5120805;28;20205;-67
2021/07/01 04:26:37;;;;;;;3.03;2.17;;;;;;;;;;5120277;28;20201;-67
2021/07/01 04:29:05;;;;;;;6.63;2.20;;;;;;;;;;5120385;28;20201;-67
2021/07/01 04:31:34;;;;;;;3.47;2.13;;;;;;;;;;5119466;28;20232;-68
2021/07/01 04:34:02;;;;;;;4.77;2.63;;;;;;;;;;5119270;28;20288;-67
2021/07/01 04:36:30;;;;;;;2.53;2.13;;;;;;;;;;5119788;28;20209;-67
2021/07/01 04:38:57;;;;;;;3.10;2.40;;;;;;;;;;5120131;28;20211;-67
2021/07/01 04:41:25;;;;;;;2.93;2.57;;;;;;;;;;5119602;28;20286;-67
2021/07/01 04:43:53;;;;;;;3.50;2.20;;;;;;;;;;5120116;28;20201;-67
2021/07/01 04:46:21;;;;;;;3.00;2.37;;;;;;;;;;5120088;28;20205;-67
2021/07/01 04:48:51;;;;;;;4.57;2.90;;;;;;;;;;5119907;28;20652;-67
2021/07/01 04:51:18;;;;;;;2.87;2.47;;;;;;;;;;5119932;28;20229;-66
2021/07/01 04:53:46;;;;;;;2.70;2.50;;;;;;;;;;5119862;28;20614;-66
2021/07/01 04:56:14;;;;;;;4.73;2.60;;;;;;;;;;5119843;28;20204;-67
2021/07/01 04:58:42;;;;;;;4.80;3.57;;;;;;;;;;5119740;28;20209;-65
2021/07/01 05:01:09;;;;;;;9.13;5.10;;;;;;;;;;5119708;28;20212;-67
2021/07/01 05:03:37;;;;;;;4.10;3.00;;;;;;;;;;5119328;28;20201;-66
2021/07/01 05:06:06;;;;;;;4.80;3.13;;;;;;;;;;5119595;28;20262;-67
2021/07/01 05:08:34;;;;;;;5.17;3.20;;;;;;;;;;5119508;28;20205;-67
2021/07/01 05:11:02;;;;;;;4.00;3.50;;;;;;;;;;5119162;28;20236;-67
2021/07/01 05:13:29;;;;;;;5.53;3.67;;;;;;;;;;5116742;28;20274;-67
2021/07/01 05:15:57;;;;;;;4.60;4.20;;;;;;;;;;5119397;28;20204;-67
2021/07/01 05:18:25;;;;;;;5.63;4.03;;;;;;;;;;5119006;28;20209;-67
2021/07/01 05:20:53;;;;;;;6.03;4.50;;;;;;;;;;5119335;28;20691;-67
2021/07/01 05:23:22;;;;;;;5.20;4.47;;;;;;;;;;5119350;28;20250;-66
2021/07/01 05:25:49;;;;;;;4.63;3.93;;;;;;;;;;5109166;28;20208;-66
2021/07/01 05:28:17;;;;;;;4.37;3.73;;;;;;;;;;5119116;28;20209;-65
2021/07/01 05:30:46;;;;;;;6.17;4.87;;;;;;;;;;5119225;28;20201;-66
2021/07/01 05:33:14;;;;;;;9.60;4.87;;;;;;;;;;5118547;28;20307;-66
2021/07/01 05:35:41;;;;;;;7.83;5.20;;;;;;;;;;5118836;28;20209;-64
2021/07/01 05:38:09;;;;;;;7.17;5.30;;;;;;;;;;5118502;28;20232;-64
2021/07/01 05:40:38;;;;;;;7.23;4.73;;;;;;;;;;5119079;28;20656;-65
2021/07/01 05:43:07;;;;;;;7.73;5.00;;;;;;;;;;5115031;28;20221;-66
2021/07/01 05:45:35;;;;;;;7.20;5.40;;;;;;;;;;5118164;28;20212;-65
2021/07/01 05:48:03;;;;;;;7.23;5.10;;;;;;;;;;5112409;28;20222;-66
2021/07/01 05:50:31;;;;;;;7.17;5.17;;;;;;;;;;5118578;28;20205;-66
2021/07/01 05:53:04;;;;;;;8.23;5.50;;;;;;;;;;5117619;28;20217;-66
2021/07/01 05:55:32;;;;;;;6.63;4.30;;;;;;;;;;5118195;28;20232;-68
2021/07/01 05:58:02;;;;;;;6.13;5.30;;;;;;;;;;5117982;28;20694;-66
2021/07/01 06:00:30;;;;;;;9.73;5.07;;;;;;;;;;5117937;28;20197;-67
2021/07/01 06:02:57;;;;;;;5.40;4.77;;;;;;;;;;5117514;28;20311;-65
2021/07/01 06:05:25;;;;;;;8.07;4.90;;;;;;;;;;5117970;28;20269;-66
2021/07/01 06:07:54;;;;;;;6.47;4.17;;;;;;;;;;5118367;28;20563;-68
2021/07/01 06:10:24;;;;;;;5.80;4.40;;;;;;;;;;5117957;28;20242;-65
2021/07/01 06:12:52;;;;;;;7.43;4.60;;;;;;;;;;5115618;28;20691;-65
2021/07/01 06:15:22;;;;;;;5.53;4.40;;;;;;;;;;5116664;28;20223;-64
2021/07/01 06:17:50;;;;;;;4.57;4.17;;;;;;;;;;5117357;28;20204;-65
2021/07/01 06:20:18;;;;;;;5.70;4.77;;;;;;;;;;5114255;28;20730;-65
2021/07/01 06:22:46;;;;;;;6.93;4.90;;;;;;;;;;5110117;28;20217;-65
2021/07/01 06:25:14;;;;;;;5.67;4.00;;;;;;;;;;5112454;28;20204;-65
2021/07/01 06:27:42;;;;;;;5.33;4.20;;;;;;;;;;5117076;28;20231;-65
2021/07/01 06:30:15;;;;;;;6.33;4.17;;;;;;;;;;5117622;28;20228;-65
2021/07/01 06:32:45;;;;;;;7.37;4.07;;;;;;;;;;5116777;28;20679;-65
2021/07/01 06:35:13;;;;;;;4.73;4.00;;;;;;;;;;5108944;28;20279;-66
2021/07/01 06:37:42;;;;;;;5.27;4.30;;;;;;;;;;5108499;28;20321;-65
2021/07/01 06:40:10;;;;;;;10.97;7.30;;;;;;;;;;5109924;28;20200;-65
2021/07/01 06:42:42;;;;;;;7.13;4.40;;;;;;;;;;5113488;28;20220;-66
2021/07/01 06:45:11;;;;;;;5.27;4.43;;;;;;;;;;5105408;28;20250;-66
2021/07/01 06:47:39;;;;;;;5.43;4.13;;;;;;;;;;5109986;28;20267;-66
2021/07/01 06:50:09;;;;;;;5.30;4.80;;;;;;;;;;5106089;28;20731;-66
2021/07/01 06:52:37;;;;;;;9.00;4.60;;;;;;;;;;5115107;28;20294;-66
2021/07/01 06:55:06;;;;;;;8.27;4.60;;;;;;;;;;5117435;28;20618;-66
2021/07/01 06:57:34;;;;;;;3.87;3.20;;;;;;;;;;5121045;28;20204;-66
2021/07/01 07:00:02;;;;;;;5.90;2.60;;;;;;;;;;5120789;28;20212;-68
2021/07/01 07:02:32;;;;;;;3.73;3.37;;;;;;;;;;5107735;28;20220;-67
2021/07/01 07:05:02;;;;;;;5.50;3.37;;;;;;;;;;5119050;28;20223;-66
2021/07/01 07:07:31;;;;;;;3.60;3.30;;;;;;;;;;5111741;28;20203;-66
2021/07/01 07:10:02;;;;;;;3.63;3.33;;;;;;;;;;5108845;28;20248;-67
2021/07/01 07:12:30;;;;;;;5.53;3.57;;;;;;;;;;5108060;28;20727;-66
2021/07/01 07:14:59;;;;;;;4.97;3.50;;;;;;;;;;5112508;28;20546;-65
2021/07/01 07:17:29;;;;;;;5.17;3.40;;;;;;;;;;5120602;28;20204;-64
2021/07/01 07:19:57;;;;;;;6.20;3.80;;;;;;;;;;5121010;28;20210;-64
2021/07/01 07:22:27;;;;;;;3.80;3.23;;;;;;;;;;5120872;28;20224;-65
2021/07/01 07:25:01;;;;;;;5.97;3.20;;;;;;;;;;5120722;28;20207;-64
2021/07/01 07:27:29;;;;;;;3.93;3.07;;;;;;;;;;5116438;28;20208;-65
2021/07/01 07:29:57;;;;;;;6.03;2.90;;;;;;;;;;5113260;28;20255;-66
2021/07/01 07:32:25;;;;;;;4.43;3.00;;;;;;;;;;5110993;28;20232;-65
2021/07/01 07:34:53;;;;;;;4.73;3.13;;;;;;;;;;5117517;28;20277;-64
2021/07/01 07:37:21;;;;;;;5.77;2.87;;;;;;;;;;5118678;28;20232;-65
2021/07/01 07:39:49;;;;;;;4.17;2.63;;;;;;;;;;5119604;28;20203;-65
2021/07/01 07:42:18;;;;;;;3.93;2.60;;;;;;;;;;5119883;28;20227;-66
2021/07/01 07:44:50;;;;;;;4.37;2.63;;;;;;;;;;5120153;28;20234;-66
2021/07/01 07:47:18;;;;;;;5.37;2.80;;;;;;;;;;5120181;28;20679;-65
2021/07/01 07:49:46;;;;;;;2.97;2.63;;;;;;;;;;5120414;28;20733;-65
2021/07/01 07:52:14;;;;;;;3.73;2.77;;;;;;;;;;5120230;28;20264;-65
2021/07/01 07:54:46;;;;;;;5.53;2.63;;;;;;;;;;5111144;28;20247;-64
2021/07/01 07:57:14;;;;;;;3.30;2.70;;;;;;;;;;5110803;28;20324;-65
2021/07/01 07:59:48;;;;;;;2.87;2.50;;;;;;;;;;5111357;28;20286;-65
2021/07/01 08:02:21;;;;;;;3.17;2.87;;;;;;;;;;5117668;28;20236;-66
2021/07/01 08:04:49;;;;;;;6.80;3.30;;;;;;;;;;5119858;28;20254;-65
2021/07/01 08:07:17;;;;;;;5.10;2.70;;;;;;;;;;5119953;28;20208;-64
2021/07/01 08:09:45;;;;;;;3.80;2.50;;;;;;;;;;5119937;28;20223;-65
2021/07/01 08:12:15;;;;;;;4.40;2.27;;;;;;;;;;5103659;28;20652;-65
2021/07/01 08:14:44;;;;;;;5.40;2.80;;;;;;;;;;5116708;28;20208;-64
2021/07/01 08:17:13;;;;;;;6.43;2.47;;;;;;;;;;5119687;28;20272;-64
2021/07/01 08:19:41;;;;;;;6.87;2.90;;;;;;;;;;5119844;28;20267;-64
2021/07/01 08:22:10;;;;;;;4.63;2.60;;;;;;;;;;5119821;28;20316;-64
2021/07/01 08:24:37;;;;;;;4.67;2.57;;;;;;;;;;5119640;28;20285;-65
2021/07/01 08:27:05;;;;;;;4.87;2.47;;;;;;;;;;5119080;28;20242;-64
2021/07/01 08:29:33;;;;;;;2.57;2.20;;;;;;;;;;5119563;28;20222;-65
2021/07/01 08:32:06;;;;;;;4.10;2.40;;;;;;;;;;5119489;28;20224;-65
2021/07/01 08:34:35;;;;;;;5.83;2.57;;;;;;;;;;5119479;28;20631;-64
2021/07/01 08:37:03;;;;;;;6.27;2.43;;;;;;;;;;5116279;28;20300;-64
2021/07/01 08:39:33;;;;;;;3.13;2.33;;;;;;;;;;5119059;28;20203;-66
2021/07/01 08:42:02;;;;;;;8.27;2.60;;;;;;;;;;5118451;28;20224;-65
2021/07/01 08:44:31;;;;;;;2.97;2.70;;;;;;;;;;5118842;28;20250;-64
2021/07/01 08:47:10;;;;;;;5.73;2.43;;;;;;;;;;5118876;28;20250;-65
2021/07/01 08:49:48;;;;;;;3.17;2.70;;;;;;;;;;5119300;28;20746;-65
2021/07/01 08:52:16;;;;;;;2.50;2.30;;;;;;;;;;5119151;28;20627;-66
2021/07/01 08:54:44;;;;;;;2.83;2.63;;;;;;;;;;5118917;28;20671;-67
2021/07/01 08:57:13;;;;;;;7.40;2.70;;;;;;;;;;5118781;28;20227;-67
2021/07/01 08:59:43;;;;;;;4.97;2.80;;;;;;;;;;5118255;28;20203;-67
2021/07/01 09:02:14;;;;;;;4.53;2.60;;;;;;;;;;5118543;28;20224;-67
2021/07/01 09:04:48;;;;;;;3.33;2.30;;;;;;;;;;5112159;28;20203;-65
2021/07/01 09:07:20;;;;;;;3.20;2.30;;;;;;;;;;5118630;28;20240;-65
2021/07/01 09:09:52;;;;;;;3.83;2.60;;;;;;;;;;5118670;28;20213;-67
2021/07/01 09:12:22;;;;;;;4.23;2.57;;;;;;;;;;5111544;28;20216;-65
2021/07/01 09:14:55;;;;;;;5.40;2.67;;;;;;;;;;5118970;28;20208;-67
2021/07/01 09:17:25;;;;;;;3.67;2.90;;;;;;;;;;5117808;28;20230;-65
2021/07/01 09:19:55;;;;;;;5.87;2.87;;;;;;;;;;5117522;28;20282;-66
2021/07/01 09:22:23;;;;;;;5.43;2.83;;;;;;;;;;5118518;28;20231;-66
2021/07/01 09:24:55;;;;;;;2.30;2.10;;;;;;;;;;5117609;28;20339;-66
2021/07/01 09:27:23;;;;;;;79.93;9.27;;;;;;;;;;5117640;28;20199;-67
2021/07/01 09:29:51;;;;;;;7.80;2.87;;;;;;;;;;5116762;28;20627;-66
2021/07/01 09:32:20;;;;;;;6.57;3.03;;;;;;;;;;5117235;28;20274;-65
2021/07/01 09:34:50;;;;;;;8.23;3.67;;;;;;;;;;5116832;28;20716;-67
2021/07/01 09:37:18;;;;;;;2.73;2.53;;;;;;;;;;5108140;28;20239;-66
2021/07/01 09:39:48;;;;;;;4.33;2.40;;;;;;;;;;5111698;28;20213;-67
2021/07/01 09:42:16;;;;;;;5.17;2.37;;;;;;;;;;5118149;28;20237;-66
2021/07/01 09:44:44;;;;;;;4.33;2.53;;;;;;;;;;5117057;28;20207;-66
2021/07/01 09:47:12;;;;;;;3.60;2.60;;;;;;;;;;5117195;28;20204;-66
2021/07/01 09:49:41;;;;;;;4.47;2.37;;;;;;;;;;5118069;28;20213;-66
2021/07/01 09:52:13;;;;;;;3.53;2.07;;;;;;;;;;5117182;28;20226;-66
2021/07/01 09:54:42;;;;;;;5.00;2.37;;;;;;;;;;5115415;28;20210;-66
2021/07/01 09:57:12;;;;;;;2.87;2.20;;;;;;;;;;5108532;28;20226;-66
2021/07/01 09:59:43;;;;;;;3.90;1.93;;;;;;;;;;5116963;28;20204;-66
2021/07/01 10:02:17;;;;;;;4.13;2.63;;;;;;;;;;5115417;28;20221;-67
2021/07/01 10:04:46;;;;;;;2.63;2.33;;;;;;;;;;5117328;28;20205;-65
2021/07/01 10:07:16;;;;;;;2.10;2.00;;;;;;;;;;5117980;28;20564;-68
2021/07/01 10:09:44;;;;;;;4.73;2.03;;;;;;;;;;5118114;28;20201;-68
2021/07/01 10:12:15;;;;;;;7.73;2.00;;;;;;;;;;5116784;28;20216;-67
2021/07/01 10:14:43;;;;;;;5.30;2.87;;;;;;;;;;5112250;28;20200;-68
2021/07/01 10:17:12;;;;;;;2.50;2.00;;;;;;;;;;5109694;28;20222;-68
2021/07/01 10:19:41;;;;;;;4.17;2.43;;;;;;;;;;5111591;28;20208;-69
2021/07/01 10:22:10;;;;;;;2.63;2.43;;;;;;;;;;5113019;28;20231;-70
2021/07/01 10:24:50;;;;;;;3.50;2.43;;;;;;;;;;5113191;28;20293;-69
2021/07/01 10:27:26;;;;;;;2.47;2.23;;;;;;;;;;5114844;28;20253;-70
2021/07/01 10:29:55;;;;;;;2.43;2.23;;;;;;;;;;5112670;28;20199;-69
2021/07/01 10:32:34;;;;;;;4.30;2.83;;;;;;;;;;5117426;28;20265;-69
2021/07/01 10:35:02;;;;;;;2.20;2.03;;;;;;;;;;5104920;28;20232;-68
2021/07/01 10:37:31;;;;;;;3.40;2.20;;;;;;;;;;5104738;28;20244;-68
2021/07/01 10:40:18;;;;;;;2.20;1.93;;;;;;;;;;5101800;28;20228;-68
2021/07/01 10:42:49;;;;;;;3.20;2.20;;;;;;;;;;5105806;28;20285;-69
2021/07/01 10:45:17;;;;;;;3.27;2.40;;;;;;;;;;5104180;28;20199;-69
2021/07/01 10:47:47;;;;;;;3.07;2.30;;;;;;;;;;5106264;28;20234;-70
2021/07/01 10:50:30;;;;;;;3.77;2.40;;;;;;;;;;5107455;28;20652;-69
2021/07/01 10:53:04;;;;;;;2.83;2.27;;;;;;;;;;5109215;28;20253;-69
2021/07/01 10:55:40;;;;;;;2.13;1.93;;;;;;;;;;5119314;28;20260;-68
2021/07/01 10:58:19;;;;;;;4.73;1.93;;;;;;;;;;5116029;28;20304;-70
2021/07/01 11:01:07;;;;;;;4.00;1.90;;;;;;;;;;5116529;28;20224;-68
2021/07/01 11:04:03;;;;;;;2.20;2.00;;;;;;;;;;5113014;28;20194;-68
2021/07/01 11:06:31;;;;;;;6.10;2.23;;;;;;;;;;5109579;28;20198;-71
2021/07/01 11:08:58;;;;;;;2.10;1.90;;;;;;;;;;5120970;28;20213;-69
2021/07/01 11:11:36;;;;;;;2.00;1.80;;;;;;;;;;5116925;28;20257;-69
2021/07/01 11:14:05;;;;;;;2.30;2.10;;;;;;;;;;5110149;28;20216;-70
2021/07/01 11:16:33;;;;;;;2.60;1.57;;;;;;;;;;5118152;28;20253;-67
2021/07/01 11:19:02;;;;;;;3.07;2.13;;;;;;;;;;5118876;28;20232;-67
2021/07/01 11:21:30;;;;;;;4.93;2.40;;;;;;;;;;5120499;28;20229;-67
2021/07/01 11:24:12;;;;;;;1.80;1.70;;;;;;;;;;5119372;28;20197;-66
2021/07/01 11:26:42;;;;;;;2.00;1.90;;;;;;;;;;5118848;28;20194;-69
2021/07/01 11:29:10;;;;;;;5.27;2.10;;;;;;;;;;5120174;28;21004;-70
2021/07/01 11:31:39;;;;;;;2.33;1.80;;;;;;;;;;5119164;28;20251;-70
2021/07/01 11:34:07;;;;;;;4.07;2.27;;;;;;;;;;5120158;28;20213;-70
2021/07/01 11:36:36;;;;;;;2.80;2.60;;;;;;;;;;5117025;28;20245;-68
2021/07/01 11:39:06;;;;;;;4.17;2.10;;;;;;;;;;5119685;28;20208;-71
2021/07/01 11:41:34;;;;;;;3.13;2.53;;;;;;;;;;5119073;28;20220;-68
2021/07/01 11:44:04;;;;;;;8.27;4.50;;;;;;;;;;5119725;28;20201;-68
2021/07/01 11:46:32;;;;;;;14.73;7.07;;;;;;;;;;5118409;28;20204;-65
2021/07/01 11:49:04;;;;;;;8.43;4.53;;;;;;;;;;5120552;28;20208;-67
2021/07/01 11:51:32;;;;;;;8.43;4.90;;;;;;;;;;5119451;28;20216;-68
2021/07/01 11:54:01;;;;;;;10.80;5.53;;;;;;;;;;5120525;28;20219;-68
2021/07/01 11:56:29;;;;;;;9.00;4.07;;;;;;;;;;5118387;28;20205;-69
2021/07/01 11:58:57;;;;;;;10.77;4.63;;;;;;;;;;5119473;28;20205;-69
2021/07/01 12:01:27;;;;;;;6.03;3.57;;;;;;;;;;5120164;28;20221;-68
2021/07/01 12:03:55;;;;;;;8.27;2.43;;;;;;;;;;5118871;28;20533;-68
2021/07/01 12:06:38;;;;;;;6.13;3.57;;;;;;;;;;5114747;28;20253;-67
2021/07/01 12:09:07;;;;;;;4.80;2.97;;;;;;;;;;5106353;28;20275;-66
2021/07/01 12:11:49;;;;;;;17.10;7.60;;;;;;;;;;5117229;28;20308;-69
2021/07/01 12:14:30;;;;;;;6.50;2.90;;;;;;;;;;5108483;28;20205;-68
2021/07/01 12:16:59;;;;;;;2.63;2.03;;;;;;;;;;5114816;28;20218;-65
2021/07/01 12:19:42;;;;;;;3.77;2.83;;;;;;;;;;5119470;28;20205;-70
2021/07/01 12:22:10;;;;;;;13.10;6.47;;;;;;;;;;5118687;28;20233;-69
2021/07/01 12:24:37;;;;;;;5.00;3.63;;;;;;;;;;5119696;28;20537;-69
2021/07/01 12:27:25;;;;;;;4.10;2.83;;;;;;;;;;5119432;28;20202;-69
2021/07/01 12:29:53;;;;;;;4.70;2.30;;;;;;;;;;5118554;28;20198;-69
2021/07/01 12:32:25;;;;;;;5.63;2.80;;;;;;;;;;5118458;28;20235;-69
2021/07/01 12:34:53;;;;;;;5.00;2.90;;;;;;;;;;5118035;28;20254;-69
2021/07/01 12:37:21;;;;;;;1.90;1.70;;;;;;;;;;5117828;28;20598;-69
2021/07/01 12:39:48;;;;;;;2.10;1.90;;;;;;;;;;5119389;28;20216;-69
2021/07/01 12:42:20;;;;;;;2.00;1.83;;;;;;;;;;5119894;28;20229;-69
2021/07/01 12:44:49;;;;;;;2.60;1.90;;;;;;;;;;5117929;28;20201;-69
2021/07/01 12:47:28;;;;;;;3.10;1.70;;;;;;;;;;5117954;28;20258;-69
2021/07/01 12:50:01;;;;;;;1.73;1.63;;;;;;;;;;5119268;28;20196;-69
2021/07/01 12:52:39;;;;;;;2.57;1.90;;;;;;;;;;5119448;28;20285;-69
2021/07/01 12:55:08;;;;;;;1.53;1.43;;;;;;;;;;5117062;28;20322;-69
2021/07/01 12:57:36;;;;;;;1.70;1.60;;;;;;;;;;5119557;28;20591;-69
2021/07/01 13:00:05;;;;;;;3.10;2.10;;;;;;;;;;5118631;28;20201;-70
2021/07/01 13:02:35;;;;;;;3.10;2.40;;;;;;;;;;5119389;28;20565;-70
2021/07/01 13:05:04;;;;;;;2.53;1.50;;;;;;;;;;5118632;28;20212;-70
2021/07/01 13:07:33;;;;;;;1.70;1.60;;;;;;;;;;5114847;28;20203;-70
2021/07/01 13:10:03;;;;;;;3.60;1.90;;;;;;;;;;5115857;28;20280;-70
2021/07/01 13:12:32;;;;;;;2.60;1.70;;;;;;;;;;5105992;28;20237;-70
2021/07/01 13:15:21;;;;;;;3.43;1.40;;;;;;;;;;5117365;28;20889;-71
2021/07/01 13:17:50;;;;;;;1.77;1.60;;;;;;;;;;5117558;28;20242;-71
2021/07/01 13:20:19;;;;;;;2.93;1.50;;;;;;;;;;5114125;28;20285;-73
2021/07/01 13:22:48;;;;;;;1.70;1.60;;;;;;;;;;5118356;28;20223;-71
2021/07/01 13:25:17;;;;;;;2.20;1.80;;;;;;;;;;5117489;28;20600;-72
2021/07/01 13:27:46;;;;;;;2.57;1.60;;;;;;;;;;5118479;28;20249;-70
2021/07/01 13:30:15;;;;;;;10.13;2.30;;;;;;;;;;5118072;28;20331;-70
2021/07/01 13:32:44;;;;;;;2.70;1.50;;;;;;;;;;5114778;28;20227;-71
2021/07/01 13:35:16;;;;;;;1.63;1.30;;;;;;;;;;5117364;28;20257;-72
2021/07/01 13:37:44;;;;;;;2.10;1.43;;;;;;;;;;5109506;28;20691;-73
2021/07/01 13:40:16;;;;;;;1.17;1.17;;;;;;;;;;5116633;28;20200;-72
2021/07/01 13:42:44;;;;;;;3.10;1.70;;;;;;;;;;5109515;28;20249;-72
2021/07/01 13:45:13;;;;;;;2.73;1.70;;;;;;;;;;5111564;28;20300;-70
2021/07/01 13:47:42;;;;;;;1.40;1.30;;;;;;;;;;5113107;28;20242;-73
2021/07/01 13:50:18;;;;;;;3.83;1.70;;;;;;;;;;5110618;28;20232;-74
2021/07/01 13:52:47;;;;;;;1.70;1.57;;;;;;;;;;5109219;28;20220;-73
2021/07/01 13:55:22;;;;;;;2.20;1.60;;;;;;;;;;5115241;28;20241;-73
2021/07/01 13:57:50;;;;;;;1.63;1.50;;;;;;;;;;5117488;28;20236;-73
2021/07/01 14:00:21;;;;;;;1.50;1.40;;;;;;;;;;5117468;28;20646;-73
2021/07/01 14:02:49;;;;;;;2.23;1.43;;;;;;;;;;5116836;28;20231;-73
2021/07/01 14:05:27;;;;;;;2.03;1.43;;;;;;;;;;5115982;28;20200;-73
2021/07/01 14:07:56;;;;;;;3.07;1.40;;;;;;;;;;5112788;28;20605;-73
2021/07/01 14:10:28;;;;;;;2.03;1.80;;;;;;;;;;5114674;28;20246;-73
2021/07/01 14:12:56;;;;;;;2.33;1.30;;;;;;;;;;5110424;28;20240;-72
2021/07/01 14:15:24;;;;;;;1.33;1.23;;;;;;;;;;5110666;28;20220;-73
2021/07/01 14:17:53;;;;;;;3.33;1.50;;;;;;;;;;5111531;28;20210;-73
2021/07/01 14:20:21;;;;;;;3.13;1.20;;;;;;;;;;5113265;28;20202;-75
2021/07/01 14:22:49;;;;;;;1.57;1.30;;;;;;;;;;5112294;28;20235;-75
2021/07/01 14:25:19;;;;;;;1.63;1.50;;;;;;;;;;5113895;28;20204;-74
2021/07/01 14:27:47;;;;;;;3.10;1.57;;;;;;;;;;5117239;28;20629;-75
2021/07/01 14:30:33;;;;;;;2.83;1.30;;;;;;;;;;5111737;28;20207;-75
2021/07/01 14:33:01;;;;;;;1.33;1.10;;;;;;;;;;5109037;28;20313;-75
2021/07/01 14:35:30;;;;;;;1.70;1.50;;;;;;;;;;5110994;28;20201;-74
2021/07/01 14:38:04;;;;;;;1.50;1.40;;;;;;;;;;5116626;28;20231;-75
2021/07/01 14:40:33;;;;;;;1.60;1.50;;;;;;;;;;5116871;28;20208;-72
2021/07/01 14:43:02;;;;;;;1.50;1.40;;;;;;;;;;5117603;28;20229;-72
2021/07/01 14:45:30;;;;;;;1.50;1.40;;;;;;;;;;5116980;28;20201;-73
2021/07/01 14:47:58;;;;;;;1.60;1.50;;;;;;;;;;5108154;28;20198;-74
2021/07/01 14:50:30;;;;;;;2.13;1.50;;;;;;;;;;5113024;28;20201;-73
2021/07/01 14:52:59;;;;;;;2.07;1.40;;;;;;;;;;5112135;28;20212;-73
2021/07/01 14:55:27;;;;;;;1.60;1.50;;;;;;;;;;5108969;28;20198;-73
2021/07/01 14:58:02;;;;;;;1.67;1.50;;;;;;;;;;5110009;28;20197;-74